createdAt,value
2023-02-16T00:03:36.765Z,67.27
2023-02-16T00:08:38.808Z,66.85
2023-02-16T00:13:53.163Z,67.14
2023-02-16T00:18:59.788Z,67.71
2023-02-16T00:24:05.391Z,67.60
2023-02-16T00:29:09.641Z,66.99
2023-02-16T00:34:31.552Z,67.80
2023-02-16T00:39:36.252Z,67.35
2023-02-16T00:44:48.083Z,67.55
2023-02-16T00:49:53.176Z,67.75
2023-02-16T00:54:58.291Z,67.67
2023-02-16T01:00:35.285Z,68.13
2023-02-16T01:05:37.189Z,68.16
2023-02-16T01:10:52.753Z,68.64
2023-02-16T01:15:54.982Z,68.40
2023-02-16T01:20:57.143Z,68.88
2023-02-16T01:26:03.224Z,69.15
2023-02-16T01:31:06.926Z,68.97
2023-02-16T01:36:29.801Z,70.00
2023-02-16T01:42:00.106Z,70.04
2023-02-16T01:47:37.038Z,70.68
2023-02-16T01:52:43.909Z,69.90
2023-02-16T01:57:51.649Z,70.24
2023-02-16T02:05:41.511Z,70.52
2023-02-16T02:11:10.193Z,71.01
2023-02-16T02:16:16.675Z,69.72
2023-02-16T02:22:26.628Z,70.35
2023-02-16T02:33:13.373Z,69.25
2023-02-16T02:38:22.527Z,69.22
2023-02-16T02:43:27.302Z,69.26
2023-02-16T02:48:35.153Z,69.29
2023-02-16T02:54:15.805Z,69.53
2023-02-16T02:59:38.390Z,69.72
2023-02-16T03:04:41.462Z,69.76
2023-02-16T03:09:44.672Z,70.01
2023-02-16T03:14:53.635Z,69.84
2023-02-16T03:20:17.174Z,69.77
2023-02-16T03:25:40.190Z,68.93
2023-02-16T03:30:45.599Z,68.35
2023-02-16T03:35:48.212Z,67.98
2023-02-16T03:40:51.635Z,67.84
2023-02-16T03:46:04.399Z,68.11
2023-02-16T03:51:06.632Z,67.86
2023-02-16T03:56:11.949Z,67.85
2023-02-16T04:01:14.016Z,67.46
2023-02-16T04:06:16.008Z,67.70
2023-02-16T04:11:36.868Z,67.85
2023-02-16T04:16:38.885Z,68.04
2023-02-16T04:21:40.951Z,68.08
2023-02-16T04:26:43.152Z,68.84
2023-02-16T04:31:45.249Z,68.61
2023-02-16T04:36:47.460Z,68.93
2023-02-16T04:41:49.359Z,69.06
2023-02-16T04:46:51.281Z,68.44
2023-02-16T04:51:53.563Z,68.96
2023-02-16T04:56:56.524Z,68.83
2023-02-16T05:34:28.746Z,66.15
2023-02-16T05:39:34.748Z,66.63
2023-02-16T05:44:42.241Z,67.00
2023-02-16T05:49:44.953Z,67.29
2023-02-16T05:54:46.980Z,67.34
2023-02-16T05:59:48.948Z,68.36
2023-02-16T06:04:51.044Z,68.22
2023-02-16T06:09:53.119Z,68.40
2023-02-16T06:14:56.046Z,69.30
2023-02-16T06:20:00.189Z,68.74
2023-02-16T06:25:02.574Z,69.54
2023-02-16T06:30:06.286Z,69.47
2023-02-16T06:35:10.365Z,69.21
2023-02-16T06:40:22.507Z,68.29
2023-02-16T06:45:26.092Z,68.22
2023-02-16T06:50:28.071Z,68.20
2023-02-16T06:55:36.733Z,68.35
2023-02-16T07:00:39.201Z,68.11
2023-02-16T07:05:41.375Z,68.37
2023-02-16T07:10:50.023Z,67.33
2023-02-16T07:15:52.606Z,66.84
2023-02-16T07:20:54.651Z,66.45
2023-02-16T07:25:56.726Z,65.98
2023-02-16T07:31:06.144Z,66.15
2023-02-16T07:36:09.881Z,65.02
2023-02-16T07:41:17.948Z,65.04
2023-02-16T07:46:20.041Z,65.39
2023-02-16T07:51:27.903Z,65.87
2023-02-16T07:56:32.786Z,65.18
2023-02-16T08:01:35.335Z,65.25
2023-02-16T08:06:37.354Z,65.68
2023-02-16T08:11:39.539Z,64.85
2023-02-16T08:16:46.523Z,65.59
2023-02-16T08:21:51.052Z,65.01
2023-02-16T08:26:59.400Z,64.37
2023-02-16T08:32:07.591Z,64.41
2023-02-16T08:37:14.841Z,63.73
2023-02-16T08:42:17.490Z,63.75
2023-02-16T08:47:20.554Z,62.71
2023-02-16T08:52:22.903Z,62.89
2023-02-16T08:57:25.063Z,62.00
2023-02-16T09:02:27.732Z,61.86
2023-02-16T09:07:35.937Z,61.35
2023-02-16T09:12:38.041Z,60.70
2023-02-16T09:17:40.457Z,60.77
2023-02-16T09:22:49.407Z,60.06
2023-02-16T09:27:51.771Z,59.89
2023-02-16T09:32:55.415Z,59.64
2023-02-16T09:37:58.209Z,59.74
2023-02-16T09:43:08.984Z,58.28
2023-02-16T09:48:21.805Z,58.89
2023-02-16T09:53:37.270Z,58.00
2023-02-16T09:59:18.620Z,58.27
2023-02-16T10:04:30.130Z,57.86
2023-02-16T10:09:33.496Z,58.69
2023-02-16T10:14:46.421Z,57.64
2023-02-16T10:19:59.765Z,58.52
2023-02-16T10:25:13.438Z,58.08
2023-02-16T10:30:22.007Z,58.32
2023-02-16T10:35:50.276Z,58.36
2023-02-16T10:41:12.865Z,57.95
2023-02-16T10:46:22.364Z,57.77
2023-02-16T10:51:36.541Z,57.89
2023-02-16T10:57:02.079Z,57.21
2023-02-16T11:02:34.957Z,57.18
2023-02-16T11:07:57.091Z,57.75
2023-02-16T11:12:59.438Z,57.92
2023-02-16T11:18:39.302Z,57.37
2023-02-16T11:23:43.457Z,57.90
2023-02-16T11:28:48.011Z,57.06
2023-02-16T11:34:03.313Z,57.82
2023-02-16T11:39:14.696Z,57.14
2023-02-16T11:44:27.906Z,56.94
2023-02-16T11:49:40.245Z,56.81
2023-02-16T11:54:48.957Z,55.96
2023-02-16T11:59:51.666Z,56.64
2023-02-16T12:05:07.679Z,56.08
2023-02-16T12:10:37.771Z,55.11
2023-02-16T12:15:48.242Z,55.45
2023-02-16T12:21:34.834Z,55.58
2023-02-16T12:26:48.672Z,55.52
2023-02-16T12:32:07.899Z,55.00
2023-02-16T12:37:34.138Z,54.65
2023-02-16T12:43:10.313Z,55.35
2023-02-16T12:48:26.404Z,55.53
2023-02-16T12:53:36.858Z,56.59
2023-02-16T12:58:46.620Z,56.12
2023-02-16T13:04:12.439Z,56.48
2023-02-16T13:09:36.437Z,56.64
2023-02-16T13:14:45.461Z,56.20
2023-02-16T13:19:47.928Z,56.63
2023-02-16T13:25:17.203Z,56.19
2023-02-16T13:31:06.113Z,56.74
2023-02-16T13:36:23.332Z,57.29
2023-02-16T13:41:41.432Z,57.56
2023-02-16T13:46:53.884Z,58.43
2023-02-16T13:51:55.999Z,59.05
2023-02-16T13:57:04.497Z,60.31
2023-02-16T14:02:13.311Z,60.09
2023-02-16T14:07:18.587Z,60.29
2023-02-16T14:12:31.976Z,61.09
2023-02-16T14:17:45.866Z,61.85
2023-02-16T14:23:00.763Z,61.66
2023-02-16T14:28:21.478Z,62.75
2023-02-16T14:33:48.694Z,62.93
2023-02-16T14:38:52.242Z,62.45
2023-02-16T14:44:26.044Z,62.92
2023-02-16T14:49:48.919Z,62.64
2023-02-16T14:55:10.805Z,61.71
2023-02-16T15:00:27.784Z,62.34
2023-02-16T15:05:40.295Z,62.43
2023-02-16T15:10:46.688Z,62.51
2023-02-16T15:15:58.412Z,62.83
2023-02-16T15:21:00.842Z,62.76
2023-02-16T15:26:07.292Z,63.33
2023-02-16T15:31:19.018Z,64.35
2023-02-16T15:36:30.401Z,64.13
2023-02-16T15:41:35.927Z,63.98
2023-02-16T15:46:41.035Z,64.19
2023-02-16T15:51:43.280Z,65.06
2023-02-16T15:56:49.155Z,67.04
2023-02-16T16:01:59.245Z,66.00
2023-02-16T16:07:08.506Z,65.76
2023-02-16T16:12:14.608Z,65.71
2023-02-16T16:17:19.268Z,66.31
2023-02-16T16:22:39.418Z,66.43
2023-02-16T16:27:48.534Z,67.07
2023-02-16T16:33:10.334Z,67.21
2023-02-16T16:38:29.100Z,67.17
2023-02-16T16:43:37.813Z,67.61
2023-02-16T16:48:45.289Z,67.31
2023-02-16T16:53:50.596Z,68.05
2023-02-16T16:58:56.924Z,67.97
2023-02-16T17:03:59.768Z,68.32
2023-02-16T17:09:03.284Z,68.72
2023-02-16T17:14:17.649Z,69.65
2023-02-16T17:19:22.046Z,69.26
2023-02-16T17:24:26.891Z,69.51
2023-02-16T17:29:32.733Z,69.92
2023-02-16T17:34:34.953Z,69.79
2023-02-16T17:39:39.727Z,71.25
2023-02-16T17:44:42.352Z,71.20
2023-02-16T17:49:44.839Z,71.57
2023-02-16T17:54:49.376Z,71.66
2023-02-16T17:59:51.380Z,71.78
2023-02-16T18:04:54.296Z,71.77
2023-02-16T18:09:56.624Z,72.21
2023-02-16T18:14:58.594Z,72.32
2023-02-16T18:20:04.443Z,73.20
2023-02-16T18:25:08.251Z,72.94
2023-02-16T18:30:13.661Z,73.02
2023-02-16T18:35:18.477Z,72.51
2023-02-16T18:40:21.338Z,72.94
2023-02-16T18:45:24.452Z,72.58
2023-02-16T18:50:26.559Z,73.71
2023-02-16T18:55:32.928Z,73.39
2023-02-16T19:00:35.267Z,73.19
2023-02-16T19:05:37.600Z,73.53
2023-02-16T19:10:39.721Z,75.24
2023-02-16T19:15:41.989Z,73.28
2023-02-16T19:20:44.004Z,73.61
2023-02-16T19:25:48.070Z,73.46
2023-02-16T19:30:50.513Z,73.68
2023-02-16T19:35:59.944Z,75.25
2023-02-16T19:41:12.956Z,73.69
2023-02-16T19:46:15.895Z,73.35
2023-02-16T19:51:18.093Z,73.70
2023-02-16T19:56:24.208Z,74.35
2023-02-16T20:01:32.333Z,74.11
2023-02-16T20:06:41.174Z,74.17
2023-02-16T20:11:43.564Z,74.31
2023-02-16T20:16:45.460Z,75.30
2023-02-16T20:21:47.633Z,73.71
2023-02-16T20:26:51.964Z,73.73
2023-02-16T20:31:56.365Z,74.41
2023-02-16T20:36:58.561Z,73.71
2023-02-16T20:42:00.863Z,73.56
2023-02-16T20:47:07.341Z,73.55
2023-02-16T20:52:10.656Z,73.59
2023-02-16T20:57:24.964Z,73.69
2023-02-16T21:02:28.783Z,73.93
2023-02-16T21:07:30.944Z,73.32
2023-02-16T21:12:33.199Z,73.56
2023-02-16T21:17:35.264Z,73.00
2023-02-16T21:22:37.444Z,72.98
2023-02-16T21:27:39.447Z,72.76
2023-02-16T21:32:44.461Z,73.25
2023-02-16T21:37:46.406Z,72.70
2023-02-16T21:42:48.523Z,72.76
2023-02-16T21:48:08.969Z,73.56
2023-02-16T21:53:11.111Z,73.62
2023-02-16T21:58:13.334Z,73.13
2023-02-16T22:03:20.801Z,73.73
2023-02-16T22:08:23.913Z,73.27
2023-02-16T22:13:35.710Z,73.71
2023-02-16T22:18:38.781Z,73.49
2023-02-16T22:23:41.992Z,73.61
2023-02-16T22:28:52.122Z,73.23
2023-02-16T22:34:03.443Z,73.54
2023-02-16T22:39:06.517Z,73.45
2023-02-16T22:44:11.003Z,73.22
2023-02-16T22:49:13.082Z,73.16
2023-02-16T22:54:18.802Z,73.60
2023-02-16T22:59:20.891Z,73.23
2023-02-16T23:04:23.054Z,73.37
2023-02-16T23:09:25.183Z,73.47
2023-02-16T23:14:30.909Z,73.07
2023-02-16T23:19:33.446Z,72.94
2023-02-16T23:24:36.317Z,73.24
2023-02-16T23:29:38.186Z,74.00
2023-02-16T23:40:08.088Z,72.58
2023-02-16T23:45:10.291Z,72.97
2023-02-16T23:50:12.546Z,72.74
2023-02-16T23:55:15.216Z,73.18
